Главная страница
METAR-TAF:

METAR-TAF

Аэропорты :

Цельтвег, Австрия

широта: 47-12N, долгота: 014-45E, высота над уровнем моря: 677 м

Текущие метеонаблюдения

Эта сводка был подготовлена 46 минут назад, в 19:50 UTC
Ветер 2 Узел от южный
Температура 1°C
Влажность 93%
Давление 1027 hPa

METAR: LOXZ 151950Z 18002KT 20KM SCT030SC 01/00 Q1027

Время: 21:36 (20:36 UTC)

Прогноз

Эта сводка был подготовлена 9 часа и 21 минут назад, в 11:15 UTC
Прогноз действительный с 15-го 12 UTC до 15-го 21 UTC
Ветер 3 Узел переменных направлений
Видимость 10 км и более
Отдельные облака на высоте 3000 фута
Отдельные облака на высоте 13000 фута
изменения
С 15-го 17 UTC до 15-го 19 UTC
Рассеянная облачность на высоте 2500 фута

TAF: LOXZ 151115Z 1512/1521 VRB03KT 9999 SCT030 SCT130 BECMG 1517/1519 BKN025

Метеонаблюдения и прогнозы для более 4000 аэропортов (сводки METAR и TAF).

Имеющиеся станции представлены на карте желтыми и красными точками.

Чтобы увидеть название станции, наведите на нее мышь.

Затем щелкните, чтобы увидеть метеонаблюдения и метеопрогнозы.

Управление картой: чтобы увеличить масштаб, щелкните зеленые кнопки с черным крестиком; чтобы уменьшить масштаб, щелкните зеленую кнопку с тире; для просмотра соседних карт щелкайте зеленые стрелки.


METAR-TAF: